Transatlantic — WDC2769 — position and weather

sailwx.info

Track history (hours):
 
Tides and Currents Weather Stations Pressure Air Temp Water Temp Dewpoint Dewpoint Depression Visibility Wind Speed Wind Dir Waves Ship Positions

Transatlantic

More information available from US FCC via Universal Licensing System and Coast Guard Vessel Documentation Center.

Last reported at 2014-Sep-23 10:09 UTC. Time now 2014-Sep-23 14:28 UTC.
Position N 35°01' E 022°19'.

Length 101 m; draft 6.2 m.

Type: Cargo ship. MMSI: 366997520.

Date/timePositionNaut miles runAvg speedWind from/ knotsBaromVisibWave heightAir tempDewpointWater temp
2014-Sep-23 10:09N 35°01' E 022°19'4 7.2
2014-Sep-23 09:33N 35°03' E 022°14'  
2014-Sep-20 17:17N 39°17' E 014°30'40 7.0
2014-Sep-20 11:33N 39°45' E 013°54'7 6.9
2014-Sep-20 10:33N 39°50' E 013°48'7 7.1
2014-Sep-20 09:33N 39°56' E 013°42'8 7.3
2014-Sep-20 08:30N 40°01' E 013°35'7 7.7
2014-Sep-20 07:33N 40°06' E 013°28'235 7.3
2014-Sep-18 23:33N 43°02' E 009°59'8 7.8
2014-Sep-18 22:33N 43°09' E 009°55'6 5.7
2014-Sep-18 21:33N 43°14' E 009°52'8 7.6
2014-Sep-18 20:33N 43°21' E 009°47'7 7.4
2014-Sep-18 19:33N 43°28' E 009°44'8 7.5
2014-Sep-18 18:33N 43°36' E 009°47'7 7.1
2014-Sep-18 17:33N 43°42' E 009°49'7 7.0
2014-Sep-18 16:33N 43°49' E 009°51'7 7.1
2014-Sep-18 15:33N 43°56' E 009°53'7 7.2
2014-Sep-18 14:33N 44°03' E 009°52'3 2.4
2014-Sep-18 13:32N 44°06' E 009°50'0 0.1
2014-Sep-18 12:32N 44°06' E 009°50'0 0.0
2014-Sep-18 11:32N 44°06' E 009°50'0 0.1
2014-Sep-18 10:32N 44°05' E 009°50'0 0.0
2014-Sep-18 09:32N 44°05' E 009°50'0 0.0
2014-Sep-18 08:32N 44°05' E 009°50'0 0.1
2014-Sep-18 07:26N 44°05' E 009°50'0 0.0
2014-Sep-18 06:29N 44°05' E 009°50'0 0.0
2014-Sep-18 05:32N 44°05' E 009°50'0 0.0
2014-Sep-18 04:29N 44°05' E 009°50'0 0.0
2014-Sep-18 03:32N 44°05' E 009°50'0 0.0
2014-Sep-18 02:32N 44°05' E 009°50'0 0.0
2014-Sep-18 01:32N 44°05' E 009°50'0 0.0
2014-Sep-18 00:32N 44°05' E 009°50'0 0.0
2014-Sep-17 23:32N 44°05' E 009°50'0 0.0
2014-Sep-17 22:29N 44°05' E 009°50'0 0.0
2014-Sep-17 21:32N 44°05' E 009°50'0 0.0
2014-Sep-17 20:32N 44°05' E 009°50'0 0.0
2014-Sep-17 19:32N 44°05' E 009°50'0 0.0
2014-Sep-17 18:32N 44°05' E 009°50'0 0.1
2014-Sep-17 17:32N 44°06' E 009°50'0 0.1
2014-Sep-17 16:32N 44°05' E 009°50'0 0.0
2014-Sep-17 15:32N 44°06' E 009°50'0 0.0
2014-Sep-17 14:32N 44°06' E 009°50'0 0.0
2014-Sep-17 13:32N 44°06' E 009°50'0 0.0
2014-Sep-17 12:32N 44°06' E 009°50'0 0.1
2014-Sep-17 11:32N 44°06' E 009°50'0 0.0
2014-Sep-17 10:32N 44°06' E 009°50'0 0.1
2014-Sep-17 09:32N 44°05' E 009°50'0 0.1
2014-Sep-17 08:32N 44°05' E 009°50'0 0.1
2014-Sep-17 07:32N 44°05' E 009°50'0 0.0
2014-Sep-17 06:32N 44°05' E 009°50'0 0.0
2014-Sep-17 05:29N 44°05' E 009°50'0 0.0
2014-Sep-17 04:29N 44°05' E 009°50'0 0.0
2014-Sep-17 03:29N 44°05' E 009°50'0 0.0
2014-Sep-17 02:32N 44°05' E 009°50'0 0.0
2014-Sep-17 01:32N 44°05' E 009°50'0 0.0
2014-Sep-17 00:32N 44°05' E 009°50'0 0.0
2014-Sep-16 23:32N 44°05' E 009°50'0 0.0
2014-Sep-16 22:32N 44°05' E 009°50'0 0.0
2014-Sep-16 21:32N 44°05' E 009°50'0 0.0
2014-Sep-16 20:32N 44°05' E 009°50'0 0.0
2014-Sep-16 19:26N 44°05' E 009°50'0 0.0
2014-Sep-16 18:32N 44°05' E 009°50'0 0.1
2014-Sep-16 17:32N 44°06' E 009°50'0 0.1
2014-Sep-16 16:32N 44°06' E 009°50'0 0.1
2014-Sep-16 15:32N 44°06' E 009°50'0 0.0
2014-Sep-16 14:32N 44°06' E 009°50'0 0.1
2014-Sep-16 13:32N 44°06' E 009°50'0 0.0
2014-Sep-16 12:32N 44°06' E 009°50'0 0.0
2014-Sep-16 11:32N 44°06' E 009°50'0 0.0
2014-Sep-16 10:32N 44°06' E 009°50'0 0.1
2014-Sep-16 09:32N 44°06' E 009°50'0 0.0
2014-Sep-16 08:32N 44°06' E 009°50'0 0.1
2014-Sep-16 07:32N 44°05' E 009°50'0 0.0
2014-Sep-16 06:32N 44°05' E 009°50'0 0.0
2014-Sep-16 05:29N 44°05' E 009°50'0 0.0
2014-Sep-16 04:32N 44°05' E 009°50'0 0.0
2014-Sep-16 03:32N 44°05' E 009°50'0 0.0
2014-Sep-16 02:32N 44°05' E 009°50'0 0.0
2014-Sep-16 01:32N 44°05' E 009°50'0 0.0
2014-Sep-16 00:32N 44°05' E 009°50'0 0.0
2014-Sep-15 23:32N 44°05' E 009°50'0 0.0
2014-Sep-15 22:32N 44°05' E 009°50'0 0.0
2014-Sep-15 21:32N 44°05' E 009°50'0 0.0
2014-Sep-15 20:32N 44°05' E 009°50'0 0.0
2014-Sep-15 19:32N 44°05' E 009°50'0 0.0
2014-Sep-15 18:32N 44°06' E 009°50'0 0.1
2014-Sep-15 17:28N 44°06' E 009°50'0 0.0
2014-Sep-15 16:32N 44°06' E 009°50'0 0.0
2014-Sep-15 15:31N 44°06' E 009°50'0 0.1
2014-Sep-15 14:32N 44°06' E 009°50'0 0.0
2014-Sep-15 13:31N 44°06' E 009°50'0 0.0
2014-Sep-15 12:31N 44°06' E 009°50'0 0.0
2014-Sep-15 11:31N 44°06' E 009°50'0 0.0
2014-Sep-15 10:31N 44°06' E 009°50'0 0.1
2014-Sep-15 09:31N 44°06' E 009°50'0 0.0
2014-Sep-15 08:31N 44°05' E 009°50'0 0.1
2014-Sep-15 07:31N 44°05' E 009°50'0 0.0
2014-Sep-15 06:31N 44°05' E 009°50'0 0.0
2014-Sep-15 05:31N 44°05' E 009°50'0 0.0
2014-Sep-15 04:31N 44°05' E 009°50'0 0.0
2014-Sep-15 03:31N 44°05' E 009°50'0 0.0
2014-Sep-15 02:31N 44°05' E 009°50'0 0.0
2014-Sep-15 01:31N 44°05' E 009°50'0 0.0
2014-Sep-15 00:31N 44°05' E 009°50'0 0.0
2014-Sep-14 23:31N 44°05' E 009°50'0 0.0
2014-Sep-14 22:31N 44°05' E 009°50'0 0.0
2014-Sep-14 21:31N 44°05' E 009°50'0 0.0
2014-Sep-14 20:31N 44°05' E 009°50'0 0.0
2014-Sep-14 19:31N 44°05' E 009°50'0 0.0
2014-Sep-14 18:31N 44°06' E 009°50'0 0.0
2014-Sep-14 17:31N 44°06' E 009°50'0 0.0
2014-Sep-14 16:31N 44°06' E 009°50'0 0.0
2014-Sep-14 15:31N 44°06' E 009°50'0 0.0
2014-Sep-14 14:31N 44°06' E 009°50'0 0.0
2014-Sep-14 13:31N 44°06' E 009°50'0 0.0
2014-Sep-14 12:31N 44°06' E 009°50'0 0.1
2014-Sep-14 11:31N 44°06' E 009°50'0 0.1
2014-Sep-14 10:31N 44°06' E 009°50'0 0.0
2014-Sep-14 09:31N 44°06' E 009°50'0 0.1
2014-Sep-14 08:31N 44°05' E 009°50'0 0.1
2014-Sep-14 07:31N 44°05' E 009°50'0 0.0
2014-Sep-14 06:31N 44°05' E 009°50'0 0.0
2014-Sep-14 05:31N 44°05' E 009°50'0 0.0
2014-Sep-14 04:31N 44°05' E 009°50'0 0.0
2014-Sep-14 03:31N 44°05' E 009°50'0 0.0
2014-Sep-14 02:31N 44°05' E 009°50'0 0.0
2014-Sep-14 01:31N 44°05' E 009°50'0 0.0
2014-Sep-13 21:31N 44°05' E 009°50'0 0.0
2014-Sep-13 20:31N 44°05' E 009°50'0 0.0
2014-Sep-13 19:31N 44°05' E 009°50'0 0.1
2014-Sep-13 18:31N 44°06' E 009°50'0 0.1
2014-Sep-13 17:31N 44°06' E 009°50'0 0.0
2014-Sep-13 16:28N 44°06' E 009°50'0 0.0
2014-Sep-13 15:31N 44°06' E 009°50'0 0.0
2014-Sep-13 14:31N 44°06' E 009°50'0 0.0
2014-Sep-13 13:31N 44°06' E 009°50'0 0.0
2014-Sep-13 12:31N 44°06' E 009°50'0 0.0
2014-Sep-13 11:31N 44°06' E 009°50'0 0.1
2014-Sep-13 10:31N 44°06' E 009°50'  
Track history (hours):
 
Tides and Currents Weather Stations Pressure Air Temp Water Temp Dewpoint Dewpoint Depression Visibility Wind Speed Wind Dir Waves Ship Positions

Transatlantic

More information available from US FCC via Universal Licensing System and Coast Guard Vessel Documentation Center.

Last reported at 2014-Sep-23 10:09 UTC. Time now 2014-Sep-23 14:28 UTC.
Position N 35°01' E 022°19'.

Length 101 m; draft 6.2 m.

Type: Cargo ship. MMSI: 366997520.

Date/timePositionNaut miles runAvg speedWind from/ knotsBaromVisibWave heightAir tempDewpointWater temp
2014-Sep-23 10:09N 35°01' E 022°19'4 7.2
2014-Sep-23 09:33N 35°03' E 022°14'  
2014-Sep-20 17:17N 39°17' E 014°30'40 7.0
2014-Sep-20 11:33N 39°45' E 013°54'7 6.9
2014-Sep-20 10:33N 39°50' E 013°48'7 7.1
2014-Sep-20 09:33N 39°56' E 013°42'8 7.3
2014-Sep-20 08:30N 40°01' E 013°35'7 7.7
2014-Sep-20 07:33N 40°06' E 013°28'235 7.3
2014-Sep-18 23:33N 43°02' E 009°59'8 7.8
2014-Sep-18 22:33N 43°09' E 009°55'6 5.7
2014-Sep-18 21:33N 43°14' E 009°52'8 7.6
2014-Sep-18 20:33N 43°21' E 009°47'7 7.4
2014-Sep-18 19:33N 43°28' E 009°44'8 7.5
2014-Sep-18 18:33N 43°36' E 009°47'7 7.1
2014-Sep-18 17:33N 43°42' E 009°49'7 7.0
2014-Sep-18 16:33N 43°49' E 009°51'7 7.1
2014-Sep-18 15:33N 43°56' E 009°53'7 7.2
2014-Sep-18 14:33N 44°03' E 009°52'3 2.4
2014-Sep-18 13:32N 44°06' E 009°50'0 0.1
2014-Sep-18 12:32N 44°06' E 009°50'0 0.0
2014-Sep-18 11:32N 44°06' E 009°50'0 0.1
2014-Sep-18 10:32N 44°05' E 009°50'0 0.0
2014-Sep-18 09:32N 44°05' E 009°50'0 0.0
2014-Sep-18 08:32N 44°05' E 009°50'0 0.1
2014-Sep-18 07:26N 44°05' E 009°50'0 0.0
2014-Sep-18 06:29N 44°05' E 009°50'0 0.0
2014-Sep-18 05:32N 44°05' E 009°50'0 0.0
2014-Sep-18 04:29N 44°05' E 009°50'0 0.0
2014-Sep-18 03:32N 44°05' E 009°50'0 0.0
2014-Sep-18 02:32N 44°05' E 009°50'0 0.0
2014-Sep-18 01:32N 44°05' E 009°50'0 0.0
2014-Sep-18 00:32N 44°05' E 009°50'0 0.0
2014-Sep-17 23:32N 44°05' E 009°50'0 0.0
2014-Sep-17 22:29N 44°05' E 009°50'0 0.0
2014-Sep-17 21:32N 44°05' E 009°50'0 0.0
2014-Sep-17 20:32N 44°05' E 009°50'0 0.0
2014-Sep-17 19:32N 44°05' E 009°50'0 0.0
2014-Sep-17 18:32N 44°05' E 009°50'0 0.1
2014-Sep-17 17:32N 44°06' E 009°50'0 0.1
2014-Sep-17 16:32N 44°05' E 009°50'0 0.0
2014-Sep-17 15:32N 44°06' E 009°50'0 0.0
2014-Sep-17 14:32N 44°06' E 009°50'0 0.0
2014-Sep-17 13:32N 44°06' E 009°50'0 0.0
2014-Sep-17 12:32N 44°06' E 009°50'0 0.1
2014-Sep-17 11:32N 44°06' E 009°50'0 0.0
2014-Sep-17 10:32N 44°06' E 009°50'0 0.1
2014-Sep-17 09:32N 44°05' E 009°50'0 0.1
2014-Sep-17 08:32N 44°05' E 009°50'0 0.1
2014-Sep-17 07:32N 44°05' E 009°50'0 0.0
2014-Sep-17 06:32N 44°05' E 009°50'0 0.0
2014-Sep-17 05:29N 44°05' E 009°50'0 0.0
2014-Sep-17 04:29N 44°05' E 009°50'0 0.0
2014-Sep-17 03:29N 44°05' E 009°50'0 0.0
2014-Sep-17 02:32N 44°05' E 009°50'0 0.0
2014-Sep-17 01:32N 44°05' E 009°50'0 0.0
2014-Sep-17 00:32N 44°05' E 009°50'0 0.0
2014-Sep-16 23:32N 44°05' E 009°50'0 0.0
2014-Sep-16 22:32N 44°05' E 009°50'0 0.0
2014-Sep-16 21:32N 44°05' E 009°50'0 0.0
2014-Sep-16 20:32N 44°05' E 009°50'0 0.0
2014-Sep-16 19:26N 44°05' E 009°50'0 0.0
2014-Sep-16 18:32N 44°05' E 009°50'0 0.1
2014-Sep-16 17:32N 44°06' E 009°50'0 0.1
2014-Sep-16 16:32N 44°06' E 009°50'0 0.1
2014-Sep-16 15:32N 44°06' E 009°50'0 0.0
2014-Sep-16 14:32N 44°06' E 009°50'0 0.1
2014-Sep-16 13:32N 44°06' E 009°50'0 0.0
2014-Sep-16 12:32N 44°06' E 009°50'0 0.0
2014-Sep-16 11:32N 44°06' E 009°50'0 0.0
2014-Sep-16 10:32N 44°06' E 009°50'0 0.1
2014-Sep-16 09:32N 44°06' E 009°50'0 0.0
2014-Sep-16 08:32N 44°06' E 009°50'0 0.1
2014-Sep-16 07:32N 44°05' E 009°50'0 0.0
2014-Sep-16 06:32N 44°05' E 009°50'0 0.0
2014-Sep-16 05:29N 44°05' E 009°50'0 0.0
2014-Sep-16 04:32N 44°05' E 009°50'0 0.0
2014-Sep-16 03:32N 44°05' E 009°50'0 0.0
2014-Sep-16 02:32N 44°05' E 009°50'0 0.0
2014-Sep-16 01:32N 44°05' E 009°50'0 0.0
2014-Sep-16 00:32N 44°05' E 009°50'0 0.0
2014-Sep-15 23:32N 44°05' E 009°50'0 0.0
2014-Sep-15 22:32N 44°05' E 009°50'0 0.0
2014-Sep-15 21:32N 44°05' E 009°50'0 0.0
2014-Sep-15 20:32N 44°05' E 009°50'0 0.0
2014-Sep-15 19:32N 44°05' E 009°50'0 0.0
2014-Sep-15 18:32N 44°06' E 009°50'0 0.1
2014-Sep-15 17:28N 44°06' E 009°50'0 0.0
2014-Sep-15 16:32N 44°06' E 009°50'0 0.0
2014-Sep-15 15:31N 44°06' E 009°50'0 0.1
2014-Sep-15 14:32N 44°06' E 009°50'0 0.0
2014-Sep-15 13:31N 44°06' E 009°50'0 0.0
2014-Sep-15 12:31N 44°06' E 009°50'0 0.0
2014-Sep-15 11:31N 44°06' E 009°50'0 0.0
2014-Sep-15 10:31N 44°06' E 009°50'0 0.1
2014-Sep-15 09:31N 44°06' E 009°50'0 0.0
2014-Sep-15 08:31N 44°05' E 009°50'0 0.1
2014-Sep-15 07:31N 44°05' E 009°50'0 0.0
2014-Sep-15 06:31N 44°05' E 009°50'0 0.0
2014-Sep-15 05:31N 44°05' E 009°50'0 0.0
2014-Sep-15 04:31N 44°05' E 009°50'0 0.0
2014-Sep-15 03:31N 44°05' E 009°50'0 0.0
2014-Sep-15 02:31N 44°05' E 009°50'0 0.0
2014-Sep-15 01:31N 44°05' E 009°50'0 0.0
2014-Sep-15 00:31N 44°05' E 009°50'0 0.0
2014-Sep-14 23:31N 44°05' E 009°50'0 0.0
2014-Sep-14 22:31N 44°05' E 009°50'0 0.0
2014-Sep-14 21:31N 44°05' E 009°50'0 0.0
2014-Sep-14 20:31N 44°05' E 009°50'0 0.0
2014-Sep-14 19:31N 44°05' E 009°50'0 0.0
2014-Sep-14 18:31N 44°06' E 009°50'0 0.0
2014-Sep-14 17:31N 44°06' E 009°50'0 0.0
2014-Sep-14 16:31N 44°06' E 009°50'0 0.0
2014-Sep-14 15:31N 44°06' E 009°50'0 0.0
2014-Sep-14 14:31N 44°06' E 009°50'0 0.0
2014-Sep-14 13:31N 44°06' E 009°50'0 0.0
2014-Sep-14 12:31N 44°06' E 009°50'0 0.1
2014-Sep-14 11:31N 44°06' E 009°50'0 0.1
2014-Sep-14 10:31N 44°06' E 009°50'0 0.0
2014-Sep-14 09:31N 44°06' E 009°50'0 0.1
2014-Sep-14 08:31N 44°05' E 009°50'0 0.1
2014-Sep-14 07:31N 44°05' E 009°50'0 0.0
2014-Sep-14 06:31N 44°05' E 009°50'0 0.0
2014-Sep-14 05:31N 44°05' E 009°50'0 0.0
2014-Sep-14 04:31N 44°05' E 009°50'0 0.0
2014-Sep-14 03:31N 44°05' E 009°50'0 0.0
2014-Sep-14 02:31N 44°05' E 009°50'0 0.0
2014-Sep-14 01:31N 44°05' E 009°50'0 0.0
2014-Sep-13 21:31N 44°05' E 009°50'0 0.0
2014-Sep-13 20:31N 44°05' E 009°50'0 0.0
2014-Sep-13 19:31N 44°05' E 009°50'0 0.1
2014-Sep-13 18:31N 44°06' E 009°50'0 0.1
2014-Sep-13 17:31N 44°06' E 009°50'0 0.0
2014-Sep-13 16:28N 44°06' E 009°50'0 0.0
2014-Sep-13 15:31N 44°06' E 009°50'0 0.0
2014-Sep-13 14:31N 44°06' E 009°50'0 0.0
2014-Sep-13 13:31N 44°06' E 009°50'0 0.0
2014-Sep-13 12:31N 44°06' E 009°50'0 0.0
2014-Sep-13 11:31N 44°06' E 009°50'0 0.1
2014-Sep-13 10:31N 44°06' E 009°50'  

Dump ship's entire track history